Avondale, Missouri
Current Conditions -  °F | °C
As of 2:54 PM on Saturday 25 Oct 2014 (Local Time) from KMKC Reporting Station
Clear Clear  
Wind Chill: 80°   Ceiling: Unl
Heat Index: 80°   Visibility: 10mi
Dew Point: 53°   Wind: 0mph
Humidity: 39%   Direction: NA
Pressure: 30.02"   Gusts: NA
Location:  39.1657°N, 94.5231°W
Report Text: KMKC 251954Z 00000KT 10SM CLR 27/12 A3002 RMK AO2 SLP159 T02670117
Loading
Personal Weather Stations






























Interactive Weather Map New forecast layout! Learn more

10-Day Weather Forecast

Advertisements
Track Severe Weather on mobile